createdAt,value
2023-02-08T00:00:58.236Z,26.00
2023-02-08T00:01:59.011Z,26.30
2023-02-08T00:02:58.301Z,27.00
2023-02-08T00:03:58.290Z,25.50
2023-02-08T00:04:58.235Z,26.20
2023-02-08T00:05:58.213Z,26.00
2023-02-08T00:06:58.216Z,26.10
2023-02-08T00:07:58.208Z,26.80
2023-02-08T00:08:58.196Z,27.10
2023-02-08T00:09:58.180Z,28.00
2023-02-08T00:10:58.206Z,25.60
2023-02-08T00:11:58.217Z,26.00
2023-02-08T00:12:58.169Z,25.70
2023-02-08T00:13:58.163Z,26.70
2023-02-08T00:14:58.144Z,26.40
2023-02-08T00:15:58.202Z,27.10
2023-02-08T00:16:58.137Z,27.00
2023-02-08T00:17:58.122Z,25.80
2023-02-08T00:18:58.103Z,26.20
2023-02-08T00:20:30.060Z,25.70
2023-02-08T00:20:58.190Z,27.10
2023-02-08T00:21:58.108Z,26.30
2023-02-08T00:22:59.128Z,26.20
2023-02-08T00:23:58.085Z,26.70
2023-02-08T00:24:58.053Z,26.30
2023-02-08T00:25:58.144Z,26.00
2023-02-08T00:26:58.071Z,25.70
2023-02-08T00:27:58.119Z,26.30
2023-02-08T00:28:59.020Z,26.80
2023-02-08T00:29:58.040Z,26.20
2023-02-08T00:30:58.229Z,27.60
2023-02-08T00:31:58.068Z,27.10
2023-02-08T00:32:58.144Z,28.30
2023-02-08T00:33:58.040Z,28.20
2023-02-08T00:34:58.011Z,27.70
2023-02-08T00:35:58.041Z,28.10
2023-02-08T00:36:57.979Z,27.20
2023-02-08T00:37:57.992Z,28.70
2023-02-08T00:38:57.958Z,27.90
2023-02-08T00:39:58.608Z,28.80
2023-02-08T00:40:58.141Z,28.50
2023-02-08T00:41:57.943Z,28.70
2023-02-08T00:42:57.947Z,28.00
2023-02-08T00:43:58.045Z,28.00
2023-02-08T00:44:57.947Z,28.20
2023-02-08T00:45:57.923Z,27.60
2023-02-08T00:46:57.914Z,26.90
2023-02-08T00:47:57.922Z,26.20
2023-02-08T00:48:57.919Z,26.60
2023-02-08T00:49:57.899Z,27.60
2023-02-08T00:50:57.869Z,28.30
2023-02-08T00:51:57.867Z,30.60
2023-02-08T00:52:57.876Z,30.10
2023-02-08T00:53:57.890Z,32.90
2023-02-08T00:54:57.866Z,32.70
2023-02-08T00:55:57.880Z,32.60
2023-02-08T00:56:57.828Z,34.90
2023-02-08T00:57:57.840Z,33.00
2023-02-08T00:58:58.092Z,31.70
2023-02-08T00:59:57.841Z,33.60
2023-02-08T01:00:57.852Z,32.90
2023-02-08T01:01:57.900Z,33.50
2023-02-08T01:02:57.782Z,31.40
2023-02-08T01:03:57.789Z,32.20
2023-02-08T01:04:57.763Z,32.10
2023-02-08T01:05:57.764Z,30.20
2023-02-08T01:06:57.748Z,28.60
2023-02-08T01:07:57.740Z,27.50
2023-02-08T01:08:57.792Z,28.00
2023-02-08T01:09:57.755Z,28.90
2023-02-08T01:10:57.738Z,29.10
2023-02-08T01:11:57.729Z,28.70
2023-02-08T01:12:57.914Z,30.30
2023-02-08T01:13:57.769Z,29.80
2023-02-08T01:14:57.754Z,29.40
2023-02-08T01:15:57.724Z,30.20
2023-02-08T01:16:57.699Z,31.00
2023-02-08T01:17:57.712Z,30.40
2023-02-08T01:18:57.696Z,30.30
2023-02-08T01:19:59.147Z,29.00
2023-02-08T01:20:57.687Z,29.90
2023-02-08T01:21:57.702Z,29.20
2023-02-08T01:22:57.664Z,29.20
2023-02-08T01:23:57.649Z,29.70
2023-02-08T01:24:57.657Z,30.50
2023-02-08T01:25:58.602Z,28.60
2023-02-08T01:26:57.653Z,29.20
2023-02-08T01:27:57.665Z,29.50
2023-02-08T01:28:57.581Z,29.80
2023-02-08T01:29:57.593Z,30.40
2023-02-08T01:30:57.626Z,30.10
2023-02-08T01:31:57.604Z,29.60
2023-02-08T01:32:57.589Z,29.40
2023-02-08T01:33:57.606Z,29.30
2023-02-08T01:34:57.611Z,28.40
2023-02-08T01:35:57.562Z,28.90
2023-02-08T01:36:57.559Z,29.00
2023-02-08T01:37:57.545Z,26.30
2023-02-08T01:38:57.524Z,26.80
2023-02-08T01:39:57.523Z,27.60
2023-02-08T01:40:57.529Z,27.70
2023-02-08T01:41:57.520Z,27.60
2023-02-08T01:42:57.497Z,28.00
2023-02-08T01:43:57.632Z,28.00
2023-02-08T01:44:57.491Z,28.00
2023-02-08T01:45:57.494Z,26.50
2023-02-08T01:46:57.544Z,27.10
2023-02-08T01:47:57.487Z,27.10
2023-02-08T01:48:57.490Z,28.10
2023-02-08T01:49:57.490Z,27.20
2023-02-08T01:50:57.475Z,25.80
2023-02-08T01:51:57.456Z,28.80
2023-02-08T01:52:57.473Z,28.10
2023-02-08T01:53:57.427Z,26.70
2023-02-08T01:54:57.444Z,26.40
2023-02-08T01:55:58.139Z,26.90
2023-02-08T01:56:57.394Z,26.20
2023-02-08T01:57:57.440Z,27.00
2023-02-08T01:58:57.444Z,27.00
2023-02-08T01:59:57.662Z,27.10
2023-02-08T02:00:57.387Z,26.90
2023-02-08T02:01:57.389Z,27.50
2023-02-08T02:02:57.353Z,29.10
2023-02-08T02:03:57.344Z,27.20
2023-02-08T02:04:57.353Z,28.00
2023-02-08T02:05:57.337Z,29.10
2023-02-08T02:06:57.321Z,28.90
2023-02-08T02:07:57.306Z,28.10
2023-02-08T02:08:57.307Z,26.90
2023-02-08T02:09:57.322Z,27.20
2023-02-08T02:10:58.074Z,27.50
2023-02-08T02:11:58.307Z,28.80
2023-02-08T02:12:57.270Z,26.60
2023-02-08T02:13:57.279Z,28.30
2023-02-08T02:14:57.259Z,28.00
2023-02-08T02:15:57.256Z,27.80
2023-02-08T02:16:57.268Z,28.10
2023-02-08T02:17:57.232Z,27.00
2023-02-08T02:18:57.582Z,27.50
2023-02-08T02:19:57.221Z,27.90
2023-02-08T02:20:57.224Z,28.20
2023-02-08T02:21:57.332Z,27.30
2023-02-08T02:22:57.336Z,27.60
2023-02-08T02:23:57.198Z,27.10
2023-02-08T02:24:57.192Z,26.10
2023-02-08T02:25:57.188Z,27.60
2023-02-08T02:26:57.184Z,25.10
2023-02-08T02:27:57.288Z,26.40
2023-02-08T02:28:57.175Z,25.10
2023-02-08T02:29:57.178Z,26.30
2023-02-08T02:30:57.134Z,26.20
2023-02-08T02:31:57.276Z,25.30
2023-02-08T02:32:57.163Z,23.80
2023-02-08T02:33:57.137Z,25.50
2023-02-08T02:34:57.109Z,25.10
2023-02-08T02:35:57.120Z,25.10
2023-02-08T02:36:57.127Z,25.80
2023-02-08T02:37:57.101Z,26.00
2023-02-08T02:38:57.085Z,26.70
2023-02-08T02:39:57.075Z,24.90
2023-02-08T02:40:57.191Z,24.90
2023-02-08T02:41:57.082Z,24.10
2023-02-08T02:42:57.109Z,24.60
2023-02-08T02:43:57.041Z,24.40
2023-02-08T02:44:57.039Z,25.00
2023-02-08T02:45:57.167Z,24.40
2023-02-08T02:46:57.100Z,24.70
2023-02-08T02:47:57.043Z,23.90
2023-02-08T02:48:57.013Z,23.60
2023-02-08T02:49:57.010Z,24.20
2023-02-08T02:50:57.006Z,24.20
2023-02-08T02:51:57.055Z,25.30
2023-02-08T02:52:56.993Z,24.50
2023-02-08T02:53:56.990Z,26.20
2023-02-08T02:54:57.019Z,25.80
2023-02-08T02:55:56.966Z,25.70
2023-02-08T02:56:56.974Z,26.20
2023-02-08T02:57:56.972Z,26.10
2023-02-08T02:58:56.946Z,26.50
2023-02-08T02:59:56.991Z,27.10
2023-02-08T03:00:56.961Z,27.00
2023-02-08T03:01:56.920Z,27.60
2023-02-08T03:02:56.969Z,27.20
2023-02-08T03:03:56.927Z,26.20
2023-02-08T03:04:56.905Z,27.20
2023-02-08T03:05:56.890Z,27.90
2023-02-08T03:06:56.894Z,28.30
2023-02-08T03:07:56.916Z,27.70
2023-02-08T03:08:56.883Z,27.80
2023-02-08T03:09:56.905Z,26.60
2023-02-08T03:10:56.854Z,26.50
2023-02-08T03:11:56.892Z,26.90
2023-02-08T03:12:56.882Z,26.40
2023-02-08T03:13:56.854Z,26.30
2023-02-08T03:14:56.847Z,26.20
2023-02-08T03:15:56.868Z,25.60
2023-02-08T03:16:56.896Z,25.70
2023-02-08T03:17:56.808Z,26.90
2023-02-08T03:18:56.818Z,25.30
2023-02-08T03:19:56.797Z,27.00
2023-02-08T03:20:56.816Z,26.40
2023-02-08T03:21:56.793Z,25.70
2023-02-08T03:22:56.790Z,25.90
2023-02-08T03:23:56.817Z,26.00
2023-02-08T03:24:56.769Z,26.50
2023-02-08T03:25:56.846Z,27.40
2023-02-08T03:26:56.763Z,28.20
2023-02-08T03:27:56.806Z,27.30
2023-02-08T03:28:56.828Z,29.00
2023-02-08T03:29:56.718Z,27.40
2023-02-08T03:30:56.800Z,27.40
2023-02-08T03:31:56.867Z,27.80
2023-02-08T03:32:56.721Z,28.70
2023-02-08T03:33:56.709Z,29.80
2023-02-08T03:34:56.701Z,29.50
2023-02-08T03:35:56.711Z,29.40
2023-02-08T03:36:56.674Z,29.20
2023-02-08T03:37:56.680Z,28.90
2023-02-08T03:38:56.668Z,27.70
2023-02-08T03:39:56.668Z,28.10
2023-02-08T03:40:56.678Z,26.60
2023-02-08T03:41:56.712Z,27.30
2023-02-08T03:42:56.646Z,26.80
2023-02-08T03:43:56.625Z,27.20
2023-02-08T03:44:56.615Z,27.00
2023-02-08T03:45:56.659Z,27.30
2023-02-08T03:46:56.649Z,27.40
2023-02-08T04:03:07.024Z,17.80
2023-02-08T04:04:07.033Z,23.90
2023-02-08T04:05:07.021Z,26.60
2023-02-08T04:06:07.007Z,28.10
2023-02-08T04:07:08.156Z,30.50
2023-02-08T04:08:08.148Z,30.60
2023-02-08T04:09:08.121Z,31.30
2023-02-08T04:10:08.123Z,30.90
2023-02-08T04:11:08.097Z,30.90
2023-02-08T04:12:08.122Z,30.80
2023-02-08T04:13:08.083Z,30.20
2023-02-08T04:14:08.121Z,30.10
2023-02-08T04:15:08.065Z,29.20
2023-02-08T04:16:08.791Z,30.30
2023-02-08T04:17:08.082Z,29.80
2023-02-08T04:18:08.048Z,30.70
2023-02-08T04:19:08.040Z,28.80
2023-02-08T04:20:08.054Z,29.50
2023-02-08T04:21:08.073Z,31.10
2023-02-08T04:22:08.028Z,29.90
2023-02-08T04:23:08.004Z,28.90
2023-02-08T04:24:08.000Z,30.10
2023-02-08T04:25:08.062Z,29.70
2023-02-08T04:26:07.997Z,29.80
2023-02-08T04:27:07.985Z,29.90
2023-02-08T04:28:08.097Z,28.40
2023-02-08T04:29:07.969Z,29.70
2023-02-08T04:30:07.963Z,28.50
2023-02-08T04:31:08.823Z,28.60
2023-02-08T04:32:07.988Z,28.80
2023-02-08T04:33:07.948Z,29.20
2023-02-08T04:34:07.970Z,27.60
2023-02-08T04:35:07.915Z,29.00
2023-02-08T04:36:07.946Z,27.50
2023-02-08T04:37:07.932Z,27.90
2023-02-08T04:38:07.900Z,27.10
2023-02-08T04:39:07.886Z,27.90
2023-02-08T04:40:07.890Z,28.50
2023-02-08T04:41:07.905Z,28.10
2023-02-08T04:42:07.888Z,28.90
2023-02-08T04:43:07.883Z,29.40
2023-02-08T04:44:07.885Z,28.40
2023-02-08T04:45:07.917Z,28.90
2023-02-08T04:46:07.858Z,30.40
2023-02-08T04:47:07.876Z,29.60
2023-02-08T04:48:07.831Z,28.80
2023-02-08T04:49:07.816Z,28.80
2023-02-08T04:50:07.837Z,28.50
2023-02-08T04:51:07.840Z,27.90
2023-02-08T04:52:07.803Z,28.50
2023-02-08T04:53:07.823Z,28.80
2023-02-08T04:54:07.804Z,28.30
2023-02-08T04:55:07.793Z,27.60
2023-02-08T04:56:07.826Z,27.80
2023-02-08T04:57:07.804Z,28.00
2023-02-08T04:58:07.797Z,28.60
2023-02-08T04:59:07.754Z,29.00
2023-02-08T05:00:07.790Z,28.70
2023-02-08T05:01:07.741Z,28.80
2023-02-08T05:02:07.725Z,28.50
2023-02-08T05:03:07.735Z,28.80
2023-02-08T05:04:07.738Z,28.40
2023-02-08T05:05:07.801Z,29.70
2023-02-08T05:06:07.699Z,29.30
2023-02-08T05:07:07.688Z,29.60
2023-02-08T05:08:07.674Z,29.50
2023-02-08T05:09:07.705Z,29.10
2023-02-08T05:10:07.731Z,29.30
2023-02-08T05:11:07.680Z,28.80
2023-02-08T05:12:07.645Z,29.50
2023-02-08T05:13:07.641Z,29.80
2023-02-08T05:14:07.634Z,28.70
2023-02-08T05:15:07.656Z,29.90
2023-02-08T05:16:07.714Z,29.00
2023-02-08T05:17:07.628Z,30.30
2023-02-08T05:18:07.617Z,30.00
2023-02-08T05:19:07.596Z,29.50
2023-02-08T05:20:07.605Z,29.80
2023-02-08T05:21:07.615Z,28.60
2023-02-08T05:22:07.594Z,28.40
2023-02-08T05:23:07.585Z,28.10
2023-02-08T05:24:07.603Z,29.30
2023-02-08T05:25:39.485Z,29.50
2023-02-08T05:26:07.549Z,30.40
2023-02-08T05:27:07.565Z,28.20
2023-02-08T05:28:07.574Z,28.40
2023-02-08T05:29:07.541Z,29.20
2023-02-08T05:30:07.526Z,29.30
2023-02-08T05:31:39.563Z,29.40
2023-02-08T05:32:07.520Z,29.90
2023-02-08T05:33:07.514Z,30.20
2023-02-08T05:34:07.514Z,29.60
2023-02-08T05:35:07.484Z,29.80
2023-02-08T05:36:07.497Z,30.60
2023-02-08T05:37:07.456Z,29.70
2023-02-08T05:38:07.473Z,30.50
2023-02-08T05:39:07.455Z,29.70
2023-02-08T05:40:07.462Z,31.50
2023-02-08T05:41:07.465Z,30.00
2023-02-08T05:42:07.431Z,30.00
2023-02-08T05:43:07.487Z,29.00
2023-02-08T05:44:07.425Z,30.50
2023-02-08T05:45:07.407Z,31.20
2023-02-08T05:46:07.439Z,30.00
2023-02-08T05:47:07.499Z,29.10
2023-02-08T05:48:07.415Z,29.00
2023-02-08T05:49:07.376Z,29.80
2023-02-08T05:50:07.388Z,28.80
2023-02-08T05:51:07.365Z,28.80
2023-02-08T05:52:07.352Z,29.60
2023-02-08T05:53:07.376Z,29.70
2023-02-08T05:54:07.350Z,29.80
2023-02-08T05:55:07.324Z,29.70
2023-02-08T05:56:07.314Z,30.50
2023-02-08T05:57:07.368Z,30.10
2023-02-08T05:58:07.358Z,29.40
2023-02-08T05:59:07.358Z,29.20
2023-02-08T06:00:07.331Z,29.20
2023-02-08T06:01:07.328Z,29.40
2023-02-08T06:02:07.335Z,28.20
2023-02-08T06:03:07.339Z,27.90
2023-02-08T06:04:07.311Z,28.50
2023-02-08T06:05:07.323Z,27.00
2023-02-08T06:06:07.267Z,28.80
2023-02-08T06:07:07.254Z,27.20
2023-02-08T06:08:07.303Z,26.70
2023-02-08T06:09:07.243Z,27.70
2023-02-08T06:10:07.302Z,25.40
2023-02-08T06:11:07.207Z,32.10
2023-02-08T06:12:07.202Z,33.10
2023-02-08T06:13:07.223Z,31.40
2023-02-08T06:14:07.207Z,31.80
2023-02-08T06:15:07.210Z,31.30
2023-02-08T06:16:07.248Z,30.80
2023-02-08T06:17:07.216Z,32.70
2023-02-08T06:18:07.163Z,32.30
2023-02-08T06:19:07.173Z,32.20
2023-02-08T06:20:39.531Z,31.80
2023-02-08T06:21:07.128Z,31.50
2023-02-08T06:22:07.141Z,29.30
2023-02-08T06:23:07.125Z,31.30
2023-02-08T06:24:07.115Z,30.00
2023-02-08T06:25:08.133Z,30.70
2023-02-08T06:26:07.133Z,33.40
2023-02-08T06:27:07.160Z,32.10
2023-02-08T06:28:07.143Z,31.20
2023-02-08T06:29:07.107Z,32.10
2023-02-08T06:30:07.066Z,30.80
2023-02-08T06:31:07.090Z,31.50
2023-02-08T06:32:07.176Z,31.40
2023-02-08T06:33:07.059Z,30.20
2023-02-08T06:34:07.060Z,31.70
2023-02-08T06:35:07.034Z,31.60
2023-02-08T06:36:07.056Z,30.40
2023-02-08T06:37:07.016Z,31.40
2023-02-08T06:38:07.026Z,31.90
2023-02-08T06:39:07.011Z,33.30
2023-02-08T06:40:07.008Z,36.90
2023-02-08T06:41:07.028Z,37.10
2023-02-08T06:42:06.981Z,35.80
2023-02-08T06:43:07.014Z,35.60
2023-02-08T06:44:06.980Z,34.90
2023-02-08T06:45:06.986Z,34.80
2023-02-08T06:46:06.999Z,34.90
2023-02-08T06:47:06.960Z,33.00
2023-02-08T06:48:06.962Z,33.50
2023-02-08T06:49:06.938Z,34.90
2023-02-08T06:50:06.940Z,35.10
2023-02-08T06:51:06.927Z,32.80
2023-02-08T06:52:06.937Z,33.60
2023-02-08T06:53:06.920Z,34.00
2023-02-08T06:54:06.913Z,32.60
2023-02-08T06:55:06.877Z,33.50
2023-02-08T06:56:06.879Z,33.50
2023-02-08T06:57:06.891Z,35.30
2023-02-08T06:58:06.912Z,35.90
2023-02-08T06:59:06.847Z,35.80
2023-02-08T07:00:06.851Z,36.00
2023-02-08T07:01:06.854Z,35.40
2023-02-08T07:02:06.924Z,35.40
2023-02-08T07:03:06.843Z,35.90
2023-02-08T07:04:06.817Z,35.00
2023-02-08T07:05:06.849Z,35.40
2023-02-08T07:06:06.790Z,34.90
2023-02-08T07:07:06.826Z,34.70
2023-02-08T07:08:06.781Z,34.70
2023-02-08T07:09:06.798Z,35.60
2023-02-08T07:10:06.777Z,37.00
2023-02-08T07:11:06.759Z,35.50
2023-02-08T07:12:06.784Z,38.40
2023-02-08T07:13:06.765Z,38.60
2023-02-08T07:14:06.823Z,40.70
2023-02-08T07:15:06.769Z,40.10
2023-02-08T07:16:06.739Z,39.90
2023-02-08T07:17:06.757Z,37.80
2023-02-08T07:18:06.720Z,34.00
2023-02-08T07:19:06.750Z,35.80
2023-02-08T07:20:06.705Z,34.60
2023-02-08T07:21:06.711Z,31.60
2023-02-08T07:22:07.552Z,32.20
2023-02-08T07:23:07.682Z,30.10
2023-02-08T07:24:06.666Z,29.70
2023-02-08T07:25:06.690Z,29.80
2023-02-08T07:26:06.670Z,29.80
2023-02-08T07:27:06.691Z,29.30
2023-02-08T07:28:06.693Z,30.20
2023-02-08T07:29:06.623Z,30.40
2023-02-08T07:30:06.627Z,32.50
2023-02-08T07:31:06.731Z,34.80
2023-02-08T07:32:06.684Z,35.20
2023-02-08T07:33:06.616Z,35.00
2023-02-08T07:34:06.639Z,109.30
2023-02-08T07:35:06.615Z,34.90
2023-02-08T07:36:06.598Z,120.40
2023-02-08T07:37:06.599Z,114.30
2023-02-08T07:38:06.624Z,35.50
2023-02-08T07:39:06.553Z,50.60
2023-02-08T07:40:06.572Z,73.90
2023-02-08T07:41:06.556Z,160.70
2023-02-08T07:42:06.574Z,108.10
2023-02-08T07:43:06.553Z,64.60
2023-02-08T07:44:06.528Z,49.90
2023-02-08T07:45:06.518Z,41.00
2023-02-08T07:46:06.544Z,34.30
2023-02-08T07:47:06.501Z,42.90
2023-02-08T07:48:06.528Z,37.90
2023-02-08T07:49:06.547Z,45.10
2023-02-08T07:50:06.495Z,32.60
2023-02-08T07:51:07.259Z,30.30
2023-02-08T07:52:06.518Z,29.20
2023-02-08T07:53:06.520Z,27.60
2023-02-08T07:54:06.453Z,31.40
2023-02-08T07:55:06.448Z,28.20
2023-02-08T07:56:06.433Z,25.30
2023-02-08T07:57:06.440Z,26.10
2023-02-08T07:58:06.447Z,30.60
2023-02-08T07:59:06.416Z,24.20
2023-02-08T08:00:06.407Z,24.60
2023-02-08T08:01:20.891Z,24.90
2023-02-08T08:02:08.396Z,24.50
2023-02-08T08:03:07.399Z,24.20
2023-02-08T08:04:06.479Z,27.00
2023-02-08T08:05:06.405Z,26.40
2023-02-08T08:06:06.374Z,28.10
2023-02-08T08:07:06.346Z,25.30
2023-02-08T08:08:06.378Z,24.70
2023-02-08T08:09:06.344Z,24.70
2023-02-08T08:10:06.352Z,24.20
2023-02-08T08:11:06.321Z,24.30
2023-02-08T08:12:06.326Z,24.00
2023-02-08T08:13:06.310Z,23.80
2023-02-08T08:14:06.306Z,24.70
2023-02-08T08:15:06.307Z,23.90
2023-02-08T08:16:06.344Z,24.70
2023-02-08T08:17:06.395Z,25.20
2023-02-08T08:18:06.408Z,25.50
2023-02-08T08:19:06.262Z,24.70
2023-02-08T08:20:06.270Z,23.70
2023-02-08T08:21:06.248Z,24.30
2023-02-08T08:22:06.253Z,24.20
2023-02-08T08:23:06.236Z,23.80
2023-02-08T08:24:06.228Z,23.40
2023-02-08T08:25:06.234Z,23.80
2023-02-08T08:26:06.211Z,24.20
2023-02-08T08:27:06.283Z,23.00
2023-02-08T08:28:06.249Z,23.20
2023-02-08T08:29:06.211Z,23.40
2023-02-08T08:30:06.175Z,23.70
2023-02-08T08:31:06.280Z,25.40
2023-02-08T08:32:06.167Z,24.80
2023-02-08T08:33:06.171Z,25.10
2023-02-08T08:34:06.188Z,26.00
2023-02-08T08:35:06.141Z,25.60
2023-02-08T08:36:06.167Z,25.90
2023-02-08T08:37:06.148Z,25.80
2023-02-08T08:38:06.136Z,26.10
2023-02-08T08:39:06.167Z,24.50
2023-02-08T08:40:06.093Z,24.00
2023-02-08T08:41:06.124Z,23.90
2023-02-08T08:42:06.089Z,24.20
2023-02-08T08:43:06.079Z,24.80
2023-02-08T08:44:06.108Z,25.30
2023-02-08T08:45:06.061Z,24.90
2023-02-08T08:46:06.082Z,25.20
2023-02-08T08:47:06.057Z,25.60
2023-02-08T08:48:06.077Z,25.80
2023-02-08T08:49:06.045Z,26.10
2023-02-08T08:50:06.030Z,25.20
2023-02-08T08:51:06.026Z,26.20
2023-02-08T08:52:06.015Z,26.40
2023-02-08T08:53:06.039Z,25.70
2023-02-08T08:54:06.042Z,26.80
2023-02-08T08:55:06.004Z,26.10
2023-02-08T08:56:06.001Z,26.70
2023-02-08T08:57:05.977Z,26.80
2023-02-08T08:58:05.985Z,27.80
2023-02-08T08:59:05.991Z,28.20
2023-02-08T09:00:05.968Z,28.40
2023-02-08T09:01:05.973Z,29.20
2023-02-08T09:02:05.994Z,28.60
2023-02-08T09:03:05.985Z,27.60
2023-02-08T09:04:05.933Z,27.60
2023-02-08T09:05:05.946Z,28.50
2023-02-08T09:06:05.936Z,27.70
2023-02-08T09:07:05.920Z,27.80
2023-02-08T09:08:05.887Z,27.00
2023-02-08T09:09:05.905Z,28.00
2023-02-08T09:10:05.885Z,26.60
2023-02-08T09:11:05.849Z,26.70
2023-02-08T09:12:05.867Z,26.60
2023-02-08T09:13:05.892Z,26.20
2023-02-08T09:14:05.859Z,26.20
2023-02-08T09:15:05.833Z,26.30
2023-02-08T09:16:06.393Z,26.60
2023-02-08T09:17:05.810Z,25.50
2023-02-08T09:18:05.823Z,25.70
2023-02-08T09:19:05.799Z,26.90
2023-02-08T09:20:05.781Z,25.00
2023-02-08T09:21:05.771Z,25.00
2023-02-08T09:22:05.805Z,24.40
2023-02-08T09:23:05.784Z,25.50
2023-02-08T09:24:05.788Z,26.40
2023-02-08T09:25:05.755Z,26.40
2023-02-08T09:26:05.753Z,24.30
2023-02-08T09:27:05.739Z,24.70
2023-02-08T09:28:05.766Z,24.60
2023-02-08T09:29:05.708Z,25.80
2023-02-08T09:30:05.690Z,26.10
2023-02-08T09:31:05.782Z,24.30
2023-02-08T09:32:05.749Z,25.00
2023-02-08T09:33:05.681Z,25.30
2023-02-08T09:34:05.683Z,25.50
2023-02-08T09:35:05.655Z,25.50
2023-02-08T09:36:05.641Z,24.90
2023-02-08T09:37:05.656Z,23.80
2023-02-08T09:38:05.658Z,24.30
2023-02-08T09:39:05.629Z,25.00
2023-02-08T09:40:05.628Z,24.50
2023-02-08T09:41:05.627Z,24.30
2023-02-08T09:42:05.596Z,23.00
2023-02-08T09:43:05.602Z,24.40
2023-02-08T09:44:05.627Z,24.60
2023-02-08T09:45:05.595Z,22.30
2023-02-08T09:46:05.584Z,23.70
2023-02-08T09:47:05.584Z,23.40
2023-02-08T09:48:05.626Z,24.30
2023-02-08T09:49:05.574Z,23.40
2023-02-08T09:50:05.561Z,23.20
2023-02-08T09:51:05.563Z,24.10
2023-02-08T09:52:05.539Z,23.10
2023-02-08T09:53:05.525Z,23.80
2023-02-08T09:54:05.529Z,22.40
2023-02-08T09:55:05.549Z,22.80
2023-02-08T09:56:05.537Z,25.50
2023-02-08T09:57:05.487Z,23.40
2023-02-08T09:58:05.503Z,23.40
2023-02-08T09:59:05.502Z,24.20
2023-02-08T10:00:05.497Z,23.50
2023-02-08T10:01:06.105Z,23.50
2023-02-08T10:02:06.485Z,23.50
2023-02-08T10:03:05.482Z,22.70
2023-02-08T10:04:05.509Z,21.90
2023-02-08T10:05:05.433Z,23.60
2023-02-08T10:06:05.450Z,22.90
2023-02-08T10:07:05.448Z,22.20
2023-02-08T10:08:05.399Z,22.60
2023-02-08T10:09:05.495Z,22.80
2023-02-08T10:10:05.399Z,20.40
2023-02-08T10:11:05.403Z,21.90
2023-02-08T10:12:05.361Z,21.90
2023-02-08T10:13:05.437Z,20.60
2023-02-08T10:14:05.395Z,20.80
2023-02-08T10:15:05.382Z,21.20
2023-02-08T10:16:05.386Z,21.90
2023-02-08T10:17:05.344Z,20.60
2023-02-08T10:18:05.376Z,21.70
2023-02-08T10:19:05.321Z,21.80
2023-02-08T10:20:05.288Z,21.70
2023-02-08T10:21:05.308Z,22.00
2023-02-08T10:22:05.335Z,22.40
2023-02-08T10:23:05.275Z,21.00
2023-02-08T10:24:05.302Z,21.30
2023-02-08T10:25:05.306Z,19.90
2023-02-08T10:26:05.263Z,21.40
2023-02-08T10:27:05.306Z,19.40
2023-02-08T10:28:05.397Z,20.30
2023-02-08T10:29:05.310Z,19.40
2023-02-08T10:30:05.245Z,19.50
2023-02-08T10:31:05.320Z,21.90
2023-02-08T10:32:05.348Z,22.00
2023-02-08T10:33:05.246Z,21.80
2023-02-08T10:34:07.490Z,21.90
2023-02-08T10:35:05.198Z,21.60
2023-02-08T10:36:05.190Z,21.70
2023-02-08T10:37:05.214Z,21.40
2023-02-08T10:38:05.208Z,21.40
2023-02-08T10:39:05.160Z,21.80
2023-02-08T10:40:05.156Z,23.00
2023-02-08T10:41:05.146Z,21.30
2023-02-08T10:42:05.153Z,21.70
2023-02-08T10:43:05.139Z,21.20
2023-02-08T10:44:06.134Z,21.80
2023-02-08T10:45:12.724Z,20.30
2023-02-08T10:46:07.204Z,21.00
2023-02-08T10:47:05.164Z,20.90
2023-02-08T10:48:05.088Z,21.70
2023-02-08T10:49:05.075Z,21.30
2023-02-08T10:50:05.066Z,20.40
2023-02-08T10:51:05.044Z,20.70
2023-02-08T10:52:05.047Z,20.80
2023-02-08T10:53:05.824Z,20.80
2023-02-08T10:54:05.807Z,20.90
2023-02-08T10:55:05.055Z,20.50
2023-02-08T10:56:05.026Z,20.40
2023-02-08T10:57:04.996Z,20.40
2023-02-08T10:58:04.986Z,20.20
2023-02-08T10:59:05.017Z,20.00
2023-02-08T11:00:05.000Z,20.50
2023-02-08T11:01:07.305Z,21.10
2023-02-08T11:02:04.967Z,20.80
2023-02-08T11:03:04.956Z,20.10
2023-02-08T11:04:05.093Z,19.00
2023-02-08T11:05:04.974Z,19.10
2023-02-08T11:06:04.937Z,19.00
2023-02-08T11:07:04.923Z,19.50
2023-02-08T11:08:04.915Z,19.00
2023-02-08T11:09:04.947Z,19.70
2023-02-08T11:10:04.907Z,20.60
2023-02-08T11:11:04.926Z,20.50
2023-02-08T11:12:05.780Z,20.80
2023-02-08T11:13:04.885Z,19.00
2023-02-08T11:14:04.879Z,20.60
2023-02-08T11:15:04.874Z,20.10
2023-02-08T11:16:04.859Z,20.60
2023-02-08T11:17:04.828Z,21.10
2023-02-08T11:18:04.868Z,20.10
2023-02-08T11:19:04.826Z,20.30
2023-02-08T11:20:04.846Z,20.30
2023-02-08T11:21:04.883Z,20.70
2023-02-08T11:22:04.841Z,21.40
2023-02-08T11:23:04.819Z,20.00
2023-02-08T11:24:04.844Z,18.20
2023-02-08T11:25:04.798Z,19.10
2023-02-08T11:26:04.771Z,18.40
2023-02-08T11:27:04.827Z,19.80
2023-02-08T11:28:04.770Z,18.10
2023-02-08T11:29:04.745Z,17.80
2023-02-08T11:30:04.732Z,18.30
2023-02-08T11:31:04.741Z,18.70
2023-02-08T11:32:04.829Z,18.90
2023-02-08T11:33:04.719Z,17.70
2023-02-08T11:34:04.713Z,17.90
2023-02-08T11:35:04.731Z,16.70
2023-02-08T11:36:04.705Z,17.50
2023-02-08T11:37:04.726Z,16.70
2023-02-08T11:38:04.682Z,16.70
2023-02-08T11:39:05.344Z,15.20
2023-02-08T11:40:04.663Z,16.40
2023-02-08T11:41:04.664Z,16.40
2023-02-08T11:42:04.678Z,17.10
2023-02-08T11:43:04.713Z,17.00
2023-02-08T11:44:04.643Z,14.70
2023-02-08T11:45:04.619Z,15.80
2023-02-08T11:46:04.663Z,16.70
2023-02-08T11:47:04.606Z,17.80
2023-02-08T11:48:04.695Z,15.60
2023-02-08T11:49:04.666Z,14.80
2023-02-08T11:50:04.578Z,13.60
2023-02-08T11:51:04.636Z,14.90
2023-02-08T11:52:04.572Z,15.60
2023-02-08T11:53:05.355Z,15.00
2023-02-08T11:54:04.592Z,15.50
2023-02-08T11:55:04.573Z,15.70
2023-02-08T11:56:04.556Z,14.00
2023-02-08T11:57:04.538Z,14.30
2023-02-08T11:58:04.544Z,15.00
2023-02-08T11:59:04.507Z,13.80
2023-02-08T12:00:04.513Z,15.10
2023-02-08T12:01:04.504Z,15.00
2023-02-08T12:02:04.507Z,15.10
2023-02-08T12:03:04.559Z,14.90
2023-02-08T12:04:04.482Z,13.20
2023-02-08T12:05:04.485Z,12.80
2023-02-08T12:06:04.461Z,11.70
2023-02-08T12:07:04.471Z,12.30
2023-02-08T12:08:04.441Z,13.40
2023-02-08T12:09:04.451Z,13.00
2023-02-08T12:10:04.439Z,11.80
2023-02-08T12:11:04.449Z,12.10
2023-02-08T12:12:04.428Z,11.80
2023-02-08T12:13:04.449Z,9.60
2023-02-08T12:14:04.421Z,9.00
2023-02-08T12:15:04.429Z,10.30
2023-02-08T12:16:04.831Z,9.60
2023-02-08T12:17:04.373Z,9.20
2023-02-08T12:18:04.410Z,8.30
2023-02-08T12:19:04.352Z,9.10
2023-02-08T12:20:36.460Z,8.70
2023-02-08T12:21:04.522Z,8.80
2023-02-08T12:22:04.354Z,8.20
2023-02-08T12:23:05.354Z,8.30
2023-02-08T12:24:04.321Z,8.40
2023-02-08T12:25:04.369Z,8.10
2023-02-08T12:26:04.353Z,8.30
2023-02-08T12:27:04.384Z,7.70
2023-02-08T12:28:04.309Z,8.30
2023-02-08T12:29:04.308Z,8.60
2023-02-08T12:30:04.282Z,8.00
2023-02-08T12:31:04.448Z,7.80
2023-02-08T12:32:04.254Z,7.60
2023-02-08T12:33:04.340Z,6.60
2023-02-08T12:34:04.261Z,7.90
2023-02-08T12:35:04.565Z,8.10
2023-02-08T12:36:05.546Z,7.90
2023-02-08T12:37:05.229Z,7.70
2023-02-08T12:38:04.367Z,8.00
2023-02-08T12:39:17.039Z,7.80
2023-02-08T12:40:06.243Z,8.20
2023-02-08T12:41:04.188Z,7.70
2023-02-08T12:42:04.210Z,7.40
2023-02-08T12:43:04.195Z,7.40
2023-02-08T12:44:04.216Z,7.40
2023-02-08T12:45:04.167Z,6.60
2023-02-08T12:46:04.197Z,7.60
2023-02-08T12:47:04.148Z,7.40
2023-02-08T12:48:05.106Z,5.40
2023-02-08T12:49:05.117Z,7.50
2023-02-08T12:50:04.146Z,7.70
2023-02-08T12:51:04.101Z,7.10
2023-02-08T12:52:04.114Z,7.80
2023-02-08T12:53:04.098Z,7.30
2023-02-08T12:54:04.125Z,8.00
2023-02-08T12:55:04.116Z,7.70
2023-02-08T12:56:04.857Z,7.70
2023-02-08T12:57:04.167Z,8.70
2023-02-08T12:58:04.088Z,8.30
2023-02-08T12:59:13.472Z,7.90
2023-02-08T13:00:06.080Z,8.50
2023-02-08T13:01:04.039Z,8.60
2023-02-08T13:02:04.051Z,8.50
2023-02-08T13:03:04.014Z,7.70
2023-02-08T13:04:04.028Z,6.90
2023-02-08T13:05:03.995Z,8.40
2023-02-08T13:06:04.369Z,8.00
2023-02-08T13:07:04.006Z,7.80
2023-02-08T13:08:03.980Z,6.50
2023-02-08T13:09:04.038Z,7.30
2023-02-08T13:10:03.976Z,7.30